Time;durP1;ratioP1;P1;durP2;ratioP2;P2;SDS_P1;SDS_P2;PMS_P1;PMS_P2;Temp;Humidity;BMP_temperature;BMP_pressure;BME280_temperature;BME280_humidity;BME280_pressure;Samples;Min_cycle;Max_cycle;Signal;HPM_P1;HPM_P2
2022/04/22 00:00:18;;;;;;;12.73;7.13;;;10.20;99.90;;;;;;4882922;29;20103;-77
2022/04/22 00:02:44;;;;;;;15.32;8.48;;;10.20;99.90;;;;;;4882664;29;20055;-77
2022/04/22 00:05:10;;;;;;;19.13;7.85;;;10.30;99.90;;;;;;4866056;29;20084;-77
2022/04/22 00:07:36;;;;;;;14.93;7.35;;;10.30;99.90;;;;;;4881663;29;20117;-77
2022/04/22 00:10:04;;;;;;;16.55;7.75;;;10.30;99.90;;;;;;4865886;29;20096;-77
2022/04/22 00:12:30;;;;;;;13.93;7.60;;;10.40;99.90;;;;;;4882782;29;20045;-77
2022/04/22 00:14:56;;;;;;;21.17;7.95;;;10.40;99.90;;;;;;4866277;29;20049;-78
2022/04/22 00:17:21;;;;;;;15.23;7.35;;;10.50;99.90;;;;;;4882405;29;20454;-78
2022/04/22 00:19:47;;;;;;;16.17;7.28;;;10.50;99.90;;;;;;4881532;29;20489;-78
2022/04/22 00:22:12;;;;;;;14.10;6.88;;;10.50;99.90;;;;;;4881273;29;20395;-77
2022/04/22 00:24:38;;;;;;;13.43;7.50;;;10.50;99.90;;;;;;4865799;29;20052;-77
2022/04/22 00:27:04;;;;;;;14.40;8.25;;;10.50;99.90;;;;;;4881442;29;20056;-77
2022/04/22 00:29:29;;;;;;;16.33;7.60;;;10.50;99.90;;;;;;4864992;29;20059;-78
2022/04/22 00:31:55;;;;;;;18.60;8.10;;;10.50;99.90;;;;;;4881206;29;20406;-79
2022/04/22 00:34:20;;;;;;;13.80;8.27;;;10.40;99.90;;;;;;4881247;29;20055;-78
2022/04/22 00:36:46;;;;;;;15.02;8.50;;;10.50;99.90;;;;;;4882369;29;20375;-78
2022/04/22 00:39:12;;;;;;;16.33;8.30;;;10.40;99.90;;;;;;4880980;29;20056;-79
2022/04/22 00:41:38;;;;;;;13.30;8.00;;;10.40;99.90;;;;;;4865441;29;20135;-78
2022/04/22 00:44:04;;;;;;;15.13;8.45;;;10.40;99.90;;;;;;4880666;29;20064;-78
2022/04/22 00:46:30;;;;;;;17.30;9.18;;;10.40;99.90;;;;;;4865514;29;20059;-78
2022/04/22 00:48:56;;;;;;;14.40;8.50;;;10.40;99.90;;;;;;4865245;29;20060;-78
2022/04/22 00:51:22;;;;;;;16.08;9.35;;;10.30;99.90;;;;;;4882086;29;20124;-78
2022/04/22 00:53:49;;;;;;;13.20;8.23;;;10.30;99.90;;;;;;4865570;29;20052;-78
2022/04/22 00:56:16;;;;;;;13.48;7.75;;;10.30;99.90;;;;;;4882054;29;20041;-78
2022/04/22 00:58:43;;;;;;;18.55;7.85;;;10.30;99.90;;;;;;4881967;29;20045;-78
2022/04/22 01:01:11;;;;;;;14.80;7.35;;;10.20;99.90;;;;;;4881973;29;20048;-78
2022/04/22 01:03:37;;;;;;;13.68;7.22;;;10.20;99.90;;;;;;4865064;29;20446;-78
2022/04/22 01:11:36;;;;;;;12.57;7.32;;;10.20;99.90;;;;;;4865526;29;20104;-78
2022/04/22 01:14:06;;;;;;;16.02;7.32;;;10.20;99.90;;;;;;4881688;29;20060;-78
2022/04/22 01:16:32;;;;;;;12.30;7.72;;;10.20;99.90;;;;;;4864847;29;20057;-78
2022/04/22 01:18:58;;;;;;;15.30;7.25;;;10.10;99.90;;;;;;4864915;29;20045;-78
2022/04/22 01:21:23;;;;;;;13.13;6.78;;;10.20;99.90;;;;;;4881527;29;20110;-78
2022/04/22 01:23:49;;;;;;;14.57;7.05;;;10.20;99.90;;;;;;4864760;29;20494;-77
2022/04/22 01:26:15;;;;;;;12.65;6.43;;;10.20;99.90;;;;;;4881482;29;20128;-78
2022/04/22 01:28:41;;;;;;;15.20;7.22;;;10.10;99.90;;;;;;4864617;29;20486;-78
2022/04/22 01:31:07;;;;;;;14.38;7.05;;;10.20;99.90;;;;;;4864869;29;20473;-82
2022/04/22 01:33:33;;;;;;;14.15;7.35;;;10.10;99.90;;;;;;4881339;29;20059;-77
2022/04/22 01:36:00;;;;;;;13.38;7.93;;;10.10;99.90;;;;;;4864338;29;20486;-77
2022/04/22 01:38:26;;;;;;;16.88;8.80;;;10.10;99.90;;;;;;4881220;29;20096;-77
2022/04/22 01:40:52;;;;;;;17.67;8.45;;;10.10;99.90;;;;;;4881088;29;20045;-77
2022/04/22 01:43:17;;;;;;;18.25;9.45;;;10.10;99.90;;;;;;4864203;29;20466;-77
2022/04/22 01:45:44;;;;;;;17.30;8.95;;;10.00;99.90;;;;;;4880971;29;20052;-77
2022/04/22 01:48:10;;;;;;;12.68;7.70;;;10.00;99.90;;;;;;4864469;29;20104;-77
2022/04/22 01:50:35;;;;;;;15.40;8.07;;;10.00;99.90;;;;;;4864616;29;20045;-78
2022/04/22 01:53:01;;;;;;;13.25;6.90;;;10.00;99.90;;;;;;4880886;29;20071;-77
2022/04/22 01:55:27;;;;;;;13.43;7.55;;;9.90;99.90;;;;;;4880824;29;20132;-78
2022/04/22 01:57:54;;;;;;;14.98;7.43;;;9.90;99.90;;;;;;4864325;29;20048;-77
2022/04/22 02:00:20;;;;;;;13.65;7.13;;;9.90;99.90;;;;;;4864024;29;20060;-77
2022/04/22 02:02:46;;;;;;;15.35;6.72;;;9.90;99.90;;;;;;4864022;29;20045;-78
2022/04/22 02:05:12;;;;;;;11.65;6.57;;;9.90;99.90;;;;;;4865774;29;20056;-77
2022/04/22 02:07:38;;;;;;;12.05;6.90;;;9.90;99.90;;;;;;4880594;29;20049;-78
2022/04/22 02:10:06;;;;;;;13.18;5.65;;;9.90;99.90;;;;;;4880423;29;20390;-77
2022/04/22 02:12:31;;;;;;;13.50;6.65;;;9.80;99.90;;;;;;4863825;29;20060;-77
2022/04/22 02:14:57;;;;;;;13.40;7.05;;;9.80;99.90;;;;;;4863792;29;20056;-77
2022/04/22 02:17:23;;;;;;;18.83;4.93;;;9.80;99.90;;;;;;4880635;29;20045;-78
2022/04/22 02:19:48;;;;;;;9.65;5.55;;;9.80;99.90;;;;;;4863711;29;20135;-77
2022/04/22 02:22:14;;;;;;;9.63;5.38;;;9.80;99.90;;;;;;4863792;29;20071;-77
2022/04/22 02:24:40;;;;;;;11.18;6.15;;;9.80;99.90;;;;;;4880419;29;20112;-77
2022/04/22 02:29:50;;;;;;;16.00;6.40;;;9.90;99.90;;;;;;4863668;29;20053;-77
2022/04/22 02:32:16;;;;;;;10.07;5.50;;;9.80;99.90;;;;;;4863642;29;20092;-77
2022/04/22 02:34:43;;;;;;;8.43;5.20;;;9.80;99.90;;;;;;4879942;29;20055;-77
2022/04/22 02:37:08;;;;;;;12.15;5.47;;;9.80;99.90;;;;;;4880322;29;20041;-77
2022/04/22 02:39:34;;;;;;;13.50;5.95;;;9.80;99.90;;;;;;4863697;29;20053;-77
2022/04/22 02:47:28;;;;;;;9.05;4.88;;;9.70;99.90;;;;;;4880097;29;20185;-78
2022/04/22 02:49:54;;;;;;;12.15;5.25;;;9.70;99.90;;;;;;4863523;29;20136;-78
2022/04/22 02:52:19;;;;;;;10.27;4.18;;;9.70;99.90;;;;;;4879753;29;20057;-77
2022/04/22 02:54:45;;;;;;;12.07;4.70;;;9.70;99.90;;;;;;4880026;29;20037;-77
2022/04/22 02:57:11;;;;;;;9.30;4.47;;;9.70;99.90;;;;;;4879954;29;20120;-77
2022/04/22 02:59:39;;;;;;;9.25;4.82;;;9.70;99.90;;;;;;4879991;29;20047;-77
2022/04/22 03:02:06;;;;;;;9.65;4.18;;;9.70;99.90;;;;;;4863318;29;20124;-77
2022/04/22 03:04:31;;;;;;;13.80;4.55;;;9.70;99.90;;;;;;4879967;29;20124;-77
2022/04/22 03:06:57;;;;;;;11.15;4.75;;;9.60;99.90;;;;;;4879793;29;20478;-77
2022/04/22 03:09:23;;;;;;;11.73;4.45;;;9.60;99.90;;;;;;4863488;29;20053;-77
2022/04/22 03:11:49;;;;;;;8.38;3.72;;;9.60;99.90;;;;;;4879599;29;20517;-77
2022/04/22 03:14:16;;;;;;;8.85;4.95;;;9.60;99.90;;;;;;4879791;29;20045;-77
2022/04/22 03:16:42;;;;;;;11.38;4.57;;;9.60;99.90;;;;;;4862907;29;20045;-77
2022/04/22 03:19:08;;;;;;;9.10;3.63;;;9.60;99.90;;;;;;4863251;29;20378;-77
2022/04/22 03:21:34;;;;;;;9.52;3.92;;;9.60;99.90;;;;;;4879773;29;20076;-77
2022/04/22 03:24:00;;;;;;;8.10;3.88;;;9.50;99.90;;;;;;4863081;29;20056;-77
2022/04/22 03:26:26;;;;;;;8.68;3.80;;;9.60;99.90;;;;;;4863048;29;20052;-77
2022/04/22 03:28:52;;;;;;;7.43;3.65;;;9.50;99.90;;;;;;4879606;29;20055;-77
2022/04/22 03:31:19;;;;;;;9.15;3.67;;;9.50;99.90;;;;;;4879515;29;20089;-77
2022/04/22 03:33:45;;;;;;;6.13;3.88;;;9.50;99.90;;;;;;4879631;29;20100;-77
2022/04/22 03:36:12;;;;;;;7.03;4.13;;;9.50;99.90;;;;;;4879623;29;20507;-77
2022/04/22 03:38:37;;;;;;;10.43;3.17;;;9.40;99.90;;;;;;4863151;29;20508;-77
2022/04/22 03:41:03;;;;;;;10.13;4.25;;;9.50;99.90;;;;;;4862952;29;20049;-77
2022/04/22 03:43:29;;;;;;;9.10;3.65;;;9.40;99.90;;;;;;4862772;29;20136;-77
2022/04/22 03:45:55;;;;;;;6.32;3.42;;;9.40;99.90;;;;;;4863018;29;20060;-77
2022/04/22 03:48:20;;;;;;;8.10;3.83;;;9.30;99.90;;;;;;4862606;29;20481;-77
2022/04/22 03:50:46;;;;;;;6.30;3.60;;;9.30;99.90;;;;;;4847785;29;20614;-77
2022/04/22 03:53:12;;;;;;;8.25;3.38;;;9.30;99.90;;;;;;4879548;29;20488;-77
2022/04/22 03:55:39;;;;;;;6.53;2.88;;;9.30;99.90;;;;;;4879489;29;20041;-77
2022/04/22 03:58:12;;;;;;;7.50;3.08;;;9.20;99.90;;;;;;4862787;29;20068;-77
2022/04/22 04:00:43;;;;;;;8.38;3.22;;;9.20;99.90;;;;;;4879346;29;20124;-77
2022/04/22 04:03:14;;;;;;;10.27;3.45;;;9.20;99.90;;;;;;4862667;29;20478;-77
2022/04/22 04:05:45;;;;;;;7.47;3.40;;;9.20;99.90;;;;;;4864801;29;20049;-77
2022/04/22 04:08:11;;;;;;;6.85;3.60;;;9.10;99.90;;;;;;4865873;29;20096;-77
2022/04/22 04:16:05;;;;;;;6.70;3.13;;;9.00;99.90;;;;;;4882066;29;20105;-77
2022/04/22 04:18:33;;;;;;;6.07;3.17;;;9.00;99.90;;;;;;4865959;29;20049;-77
2022/04/22 04:23:44;;;;;;;6.85;3.40;;;8.90;99.90;;;;;;4865553;29;20403;-77
2022/04/22 04:26:11;;;;;;;10.52;3.40;;;8.90;99.90;;;;;;4865516;29;20477;-77
2022/04/22 04:28:37;;;;;;;7.38;3.75;;;8.90;99.90;;;;;;4865557;29;20578;-77
2022/04/22 04:31:04;;;;;;;6.30;3.50;;;8.90;99.90;;;;;;4865510;29;20449;-77
2022/04/22 04:33:31;;;;;;;7.63;3.67;;;8.80;99.90;;;;;;4865741;29;20061;-77
2022/04/22 04:35:58;;;;;;;8.38;3.38;;;8.80;99.90;;;;;;4882329;29;20049;-77
2022/04/22 04:38:24;;;;;;;6.65;3.28;;;8.80;99.90;;;;;;4865684;29;20057;-77
2022/04/22 04:40:51;;;;;;;9.32;4.47;;;8.80;99.90;;;;;;4865630;29;20124;-77
2022/04/22 04:43:17;;;;;;;11.07;3.75;;;8.80;99.90;;;;;;4865283;29;20061;-77
2022/04/22 04:45:44;;;;;;;6.18;4.07;;;8.80;99.90;;;;;;4865142;29;20057;-77
2022/04/22 04:48:10;;;;;;;8.48;3.50;;;8.80;99.90;;;;;;4865068;29;20045;-77
2022/04/22 04:50:35;;;;;;;5.65;2.97;;;8.80;99.90;;;;;;4864867;29;20053;-77
2022/04/22 04:53:01;;;;;;;6.05;2.95;;;8.80;99.90;;;;;;4865080;29;20052;-77
2022/04/22 04:55:27;;;;;;;6.50;3.10;;;8.80;99.90;;;;;;4865055;29;20065;-77
2022/04/22 04:57:52;;;;;;;8.65;3.25;;;8.80;99.90;;;;;;4864878;29;20497;-77
2022/04/22 05:00:18;;;;;;;5.82;2.95;;;8.90;99.90;;;;;;4864888;29;20061;-77
2022/04/22 05:02:45;;;;;;;5.47;3.20;;;8.90;99.90;;;;;;4881500;29;20446;-78
2022/04/22 05:05:12;;;;;;;5.85;2.75;;;9.00;99.90;;;;;;4864889;29;20060;-77
2022/04/22 05:07:58;;;;;;;4.68;2.60;;;9.00;99.90;;;;;;4881584;29;20131;-77
2022/04/22 05:10:26;;;;;;;4.55;2.42;;;9.10;99.90;;;;;;4881655;29;20413;-77
2022/04/22 05:12:52;;;;;;;5.80;2.28;;;9.20;99.90;;;;;;4864646;29;20076;-77
2022/04/22 05:15:19;;;;;;;5.95;2.45;;;9.30;99.90;;;;;;4864350;29;20096;-77
2022/04/22 05:17:46;;;;;;;9.05;2.42;;;9.40;99.90;;;;;;4864839;29;20053;-77
2022/04/22 05:20:14;;;;;;;6.60;2.80;;;9.40;99.90;;;;;;4864955;29;20052;-77
2022/04/22 05:22:40;;;;;;;8.13;2.67;;;9.40;99.90;;;;;;4864556;29;20494;-77
2022/04/22 05:25:08;;;;;;;6.03;2.28;;;9.50;99.90;;;;;;4864542;29;20057;-77
2022/04/22 05:27:35;;;;;;;4.38;2.10;;;9.60;99.90;;;;;;4864513;29;20057;-77
2022/04/22 05:32:48;;;;;;;8.60;3.00;;;9.70;99.90;;;;;;4881427;29;20123;-77
2022/04/22 05:35:19;;;;;;;9.88;3.17;;;9.80;99.90;;;;;;4864560;29;20457;-77
2022/04/22 05:37:53;;;;;;;5.70;2.22;;;9.90;99.90;;;;;;4864175;29;20474;-76
2022/04/22 05:40:21;;;;;;;6.80;2.50;;;10.00;99.90;;;;;;4864350;29;20052;-76
2022/04/22 05:42:48;;;;;;;6.00;2.40;;;10.00;99.90;;;;;;4864153;29;20383;-76
2022/04/22 05:45:15;;;;;;;7.55;2.40;;;10.00;99.90;;;;;;4880879;29;20052;-76
2022/04/22 05:47:42;;;;;;;3.92;1.65;;;10.10;99.90;;;;;;4864000;29;20451;-76
2022/04/22 05:50:11;;;;;;;4.38;1.83;;;10.10;99.90;;;;;;4880729;29;20509;-76
2022/04/22 05:52:38;;;;;;;6.05;2.75;;;10.30;99.90;;;;;;4863937;29;20088;-77
2022/04/22 05:55:10;;;;;;;7.10;3.17;;;10.20;99.90;;;;;;4864289;29;20064;-77
2022/04/22 05:57:37;;;;;;;9.02;3.45;;;10.30;99.90;;;;;;4864287;29;20485;-77
2022/04/22 06:00:12;;;;;;;6.80;2.67;;;10.40;99.90;;;;;;4864204;29;20075;-76
2022/04/22 06:02:39;;;;;;;6.13;2.70;;;10.40;99.90;;;;;;4880778;29;20055;-76
2022/04/22 06:05:05;;;;;;;9.73;2.70;;;10.40;99.90;;;;;;4863791;29;20458;-77
2022/04/22 06:07:30;;;;;;;8.48;2.78;;;10.50;99.90;;;;;;4863923;29;20052;-77
2022/04/22 06:12:40;;;;;;;6.60;2.78;;;10.60;99.90;;;;;;4863701;29;20060;-78
2022/04/22 06:15:06;;;;;;;7.10;2.60;;;10.70;99.90;;;;;;4863713;29;20136;-77
2022/04/22 06:17:32;;;;;;;6.63;2.33;;;10.70;99.90;;;;;;4863839;29;20139;-78
2022/04/22 06:19:58;;;;;;;7.75;2.67;;;10.90;99.90;;;;;;4880307;29;20140;-79
2022/04/22 06:22:26;;;;;;;5.60;2.83;;;10.90;99.90;;;;;;4880311;29;20048;-79
2022/04/22 06:24:52;;;;;;;9.27;2.38;;;10.90;99.90;;;;;;4880310;29;20049;-79
2022/04/22 06:27:27;;;;;;;4.43;2.15;;;10.80;99.90;;;;;;4863028;29;20056;-79
2022/04/22 06:29:55;;;;;;;8.73;2.60;;;10.70;99.90;;;;;;4863557;29;20131;-79
2022/04/22 06:32:26;;;;;;;7.30;3.45;;;11.00;99.90;;;;;;4880338;29;20043;-78
2022/04/22 06:34:52;;;;;;;6.53;2.28;;;10.90;99.90;;;;;;4863382;29;20064;-79
2022/04/22 06:37:18;;;;;;;8.98;2.70;;;11.00;99.90;;;;;;4863572;29;20076;-77
2022/04/22 06:47:58;;;;;;;7.00;2.83;;;11.10;99.90;;;;;;4879600;29;20517;-78
2022/04/22 06:50:24;;;;;;;6.70;2.78;;;11.10;99.90;;;;;;4887543;29;20055;-77
2022/04/22 06:52:50;;;;;;;7.15;2.72;;;11.20;99.90;;;;;;4864910;29;20045;-77
2022/04/22 06:55:17;;;;;;;5.60;2.67;;;11.20;99.90;;;;;;4879848;29;20047;-78
2022/04/22 06:57:49;;;;;;;6.28;2.33;;;11.00;99.90;;;;;;4879826;29;20049;-78
2022/04/22 07:00:18;;;;;;;6.90;2.75;;;11.30;99.90;;;;;;4879569;29;20096;-77
2022/04/22 07:02:45;;;;;;;9.30;2.50;;;11.40;99.90;;;;;;4862836;29;20136;-77
2022/04/22 07:05:11;;;;;;;6.57;2.50;;;11.50;99.90;;;;;;4862785;29;20077;-77
2022/04/22 07:07:37;;;;;;;6.80;2.58;;;11.40;99.90;;;;;;4862612;29;20049;-76
2022/04/22 07:10:03;;;;;;;8.50;2.63;;;11.40;99.90;;;;;;4863028;29;20132;-76
2022/04/22 07:12:32;;;;;;;7.63;2.85;;;11.30;99.90;;;;;;4862678;29;20045;-77
2022/04/22 07:15:06;;;;;;;8.23;2.60;;;11.40;99.90;;;;;;4862812;29;20053;-76
2022/04/22 07:17:36;;;;;;;10.45;3.10;;;11.40;99.90;;;;;;4863036;29;20076;-77
2022/04/22 07:20:09;;;;;;;7.97;2.75;;;11.30;99.90;;;;;;4879334;29;20108;-77
2022/04/22 07:22:39;;;;;;;11.23;2.80;;;11.40;99.90;;;;;;4862655;29;20064;-78
2022/04/22 07:25:06;;;;;;;11.63;2.67;;;11.20;99.90;;;;;;4863000;29;20128;-77
2022/04/22 07:27:37;;;;;;;9.85;2.80;;;11.40;99.90;;;;;;4862337;29;20110;-77
2022/04/22 07:30:07;;;;;;;7.93;2.60;;;11.60;99.90;;;;;;4879456;29;20041;-78
2022/04/22 07:32:37;;;;;;;10.52;3.00;;;11.70;99.90;;;;;;4862515;29;20045;-77
2022/04/22 07:35:12;;;;;;;7.53;2.50;;;11.90;99.90;;;;;;4865132;29;20053;-78
2022/04/22 07:37:46;;;;;;;8.63;2.75;;;11.60;99.90;;;;;;4876982;29;20053;-78
2022/04/22 07:40:13;;;;;;;6.50;2.95;;;11.60;99.90;;;;;;4884191;29;20052;-77
2022/04/22 07:46:46;;;;;;;9.95;3.00;;;11.60;99.90;;;;;;4884567;29;20068;-77
2022/04/22 07:48:12;;;;;;;7.80;2.53;;;11.70;99.90;;;;;;4884463;29;20413;-76
2022/04/22 07:50:38;;;;;;;4.88;2.03;;;11.80;99.90;;;;;;4884636;29;20056;-77
2022/04/22 07:53:03;;;;;;;5.88;2.30;;;12.10;99.90;;;;;;4884841;29;20064;-77
2022/04/22 07:55:29;;;;;;;9.68;2.72;;;12.10;99.90;;;;;;4901117;29;20049;-77
2022/04/22 07:57:56;;;;;;;7.57;2.22;;;12.10;99.90;;;;;;4884424;29;20055;-77
2022/04/22 08:00:22;;;;;;;6.28;2.53;;;12.00;99.90;;;;;;4876368;29;20084;-77
2022/04/22 08:02:49;;;;;;;8.30;2.53;;;12.00;99.90;;;;;;4873718;29;20082;-77
2022/04/22 08:05:15;;;;;;;7.18;2.42;;;12.20;99.90;;;;;;4878373;29;20045;-77
2022/04/22 08:07:41;;;;;;;7.93;2.58;;;12.20;99.90;;;;;;4879628;29;20519;-77
2022/04/22 08:10:07;;;;;;;7.78;2.55;;;12.20;99.90;;;;;;4884260;29;20135;-77
2022/04/22 08:12:33;;;;;;;8.07;2.75;;;12.40;99.90;;;;;;4883558;29;20052;-77
2022/04/22 08:15:01;;;;;;;6.63;2.90;;;12.50;99.90;;;;;;4881618;29;20041;-77
2022/04/22 08:17:27;;;;;;;8.23;2.78;;;12.70;99.90;;;;;;4882298;29;20056;-76
2022/04/22 08:19:52;;;;;;;5.45;2.70;;;12.50;99.90;;;;;;4884154;29;20044;-77
2022/04/22 08:22:18;;;;;;;6.72;2.47;;;12.70;99.90;;;;;;4901174;29;20048;-77
2022/04/22 08:24:44;;;;;;;7.82;3.33;;;13.00;99.90;;;;;;4884206;29;20753;-78
2022/04/22 08:27:10;;;;;;;8.38;3.10;;;12.80;99.90;;;;;;4883951;29;20048;-76
2022/04/22 08:29:37;;;;;;;10.05;3.10;;;12.80;99.90;;;;;;4900899;29;20045;-77
2022/04/22 08:32:03;;;;;;;6.18;2.65;;;12.70;99.90;;;;;;4900976;29;20049;-76
2022/04/22 08:34:29;;;;;;;7.65;3.15;;;12.80;99.90;;;;;;4884093;29;20057;-77
2022/04/22 08:36:55;;;;;;;6.15;2.80;;;12.90;99.90;;;;;;4899237;29;20421;-76
2022/04/22 08:39:20;;;;;;;8.88;3.50;;;12.90;99.90;;;;;;4877949;29;20430;-77
2022/04/22 08:41:48;;;;;;;6.35;3.03;;;12.70;99.90;;;;;;4869551;29;20048;-77
2022/04/22 08:44:14;;;;;;;7.07;2.95;;;13.00;99.90;;;;;;4862921;29;20064;-78
2022/04/22 08:52:14;;;;;;;8.98;3.20;;;13.40;99.90;;;;;;4864175;29;20454;-78
2022/04/22 08:54:45;;;;;;;9.10;3.38;;;13.30;99.90;;;;;;4865075;29;20057;-78
2022/04/22 08:57:11;;;;;;;5.05;2.50;;;13.30;99.90;;;;;;4864981;29;20040;-78
2022/04/22 08:59:37;;;;;;;9.98;3.47;;;13.10;99.90;;;;;;4863825;29;20049;-78
2022/04/22 09:02:03;;;;;;;9.18;3.35;;;12.80;99.90;;;;;;4881320;29;20049;-78
2022/04/22 09:04:29;;;;;;;8.63;3.38;;;12.90;99.90;;;;;;4881613;29;20124;-78
2022/04/22 09:06:56;;;;;;;7.15;3.95;;;13.00;99.90;;;;;;4864940;29;20196;-79
2022/04/22 09:09:22;;;;;;;8.25;3.72;;;13.10;99.90;;;;;;4864361;29;20382;-79
2022/04/22 09:11:48;;;;;;;8.75;3.33;;;13.00;99.90;;;;;;4881356;29;20045;-78
2022/04/22 09:14:20;;;;;;;7.57;3.03;;;13.20;99.90;;;;;;4864869;29;20061;-78
2022/04/22 09:16:46;;;;;;;8.70;3.33;;;13.40;99.90;;;;;;4881011;29;20504;-79
2022/04/22 09:19:12;;;;;;;8.98;3.17;;;13.10;99.90;;;;;;4881428;29;20045;-78
2022/04/22 09:21:39;;;;;;;12.18;2.97;;;13.10;99.90;;;;;;4864669;29;20048;-79
2022/04/22 09:24:13;;;;;;;10.05;2.78;;;13.30;99.90;;;;;;4864489;29;20049;-78
2022/04/22 09:26:39;;;;;;;12.35;3.20;;;13.20;99.90;;;;;;4881114;29;20085;-79
2022/04/22 09:29:06;;;;;;;6.07;3.28;;;13.40;99.90;;;;;;4864357;29;20095;-79
2022/04/22 09:31:49;;;;;;;6.15;3.25;;;13.40;99.90;;;;;;4864015;29;20470;-78
2022/04/22 09:34:31;;;;;;;15.02;3.30;;;13.40;99.90;;;;;;4864564;29;20116;-78
2022/04/22 09:42:53;;;;;;;6.63;2.95;;;13.60;99.90;;;;;;4863658;29;20065;-78
2022/04/22 09:45:19;;;;;;;6.97;2.90;;;13.50;99.90;;;;;;4863031;29;20486;-78
2022/04/22 09:47:59;;;;;;;7.95;3.20;;;13.80;99.90;;;;;;4879933;29;20082;-76
2022/04/22 09:50:52;;;;;;;10.32;3.15;;;13.80;99.90;;;;;;4879994;29;20060;-78
2022/04/22 09:53:35;;;;;;;9.35;3.45;;;13.90;99.90;;;;;;4879807;29;20429;-77
2022/04/22 09:56:05;;;;;;;;;;;14.00;99.90;;;;;;4880395;29;20048;-77
2022/04/22 09:58:31;;;;;;;7.35;2.72;;;14.00;99.90;;;;;;4863036;29;20246;-79
2022/04/22 10:00:59;;;;;;;9.90;3.28;;;13.90;99.90;;;;;;4863051;29;20045;-77
2022/04/22 10:03:27;;;;;;;12.40;3.70;;;14.00;99.90;;;;;;4879814;29;20106;-78
2022/04/22 10:05:54;;;;;;;10.57;4.00;;;14.00;99.90;;;;;;4863087;29;20053;-79
2022/04/22 10:08:21;;;;;;;17.55;4.30;;;14.30;99.90;;;;;;4862754;29;20501;-79
2022/04/22 10:10:50;;;;;;;8.82;3.80;;;13.80;99.90;;;;;;4863043;29;20404;-79
2022/04/22 10:13:18;;;;;;;8.55;3.60;;;14.10;99.90;;;;;;4862425;29;20056;-78
2022/04/22 10:15:45;;;;;;;10.07;3.72;;;13.80;99.90;;;;;;4862819;29;20080;-78
2022/04/22 10:18:13;;;;;;;8.38;3.72;;;13.80;99.90;;;;;;4862868;29;20128;-79
2022/04/22 10:20:40;;;;;;;11.23;4.68;;;13.60;99.90;;;;;;4879444;29;20060;-78
2022/04/22 10:23:06;;;;;;;8.35;3.78;;;13.70;99.90;;;;;;4879328;29;20071;-78
2022/04/22 10:25:32;;;;;;;9.68;3.97;;;13.80;99.90;;;;;;4879219;29;20490;-79
2022/04/22 10:28:03;;;;;;;10.95;4.05;;;13.80;99.90;;;;;;4879419;29;20080;-78
2022/04/22 10:30:30;;;;;;;10.07;4.18;;;13.60;99.90;;;;;;4879531;29;20067;-77
2022/04/22 10:32:56;;;;;;;20.52;4.47;;;13.80;99.90;;;;;;4879413;29;20128;-80
2022/04/22 10:35:23;;;;;;;8.57;4.30;;;14.00;99.90;;;;;;4879150;29;20124;-78
2022/04/22 10:37:50;;;;;;;7.40;3.70;;;13.90;99.90;;;;;;4879088;29;20049;-78
2022/04/22 10:40:21;;;;;;;12.23;4.97;;;14.00;99.90;;;;;;4879335;29;20173;-78
2022/04/22 10:42:48;;;;;;;8.43;4.22;;;14.00;99.90;;;;;;4854076;29;130257;-78
2022/04/22 10:47:58;;;;;;;11.57;4.53;;;14.00;99.90;;;;;;4862873;29;20080;-78
2022/04/22 10:50:31;;;;;;;11.27;5.03;;;13.80;99.90;;;;;;4862710;29;20479;-78
2022/04/22 10:53:08;;;;;;;10.68;4.97;;;13.90;99.90;;;;;;4879846;29;20047;-78
2022/04/22 10:55:38;;;;;;;10.30;5.10;;;13.90;99.90;;;;;;4863283;29;20045;-78
2022/04/22 10:58:13;;;;;;;11.68;5.05;;;14.00;99.90;;;;;;4879486;29;20397;-78
2022/04/22 11:00:44;;;;;;;8.50;4.20;;;13.50;99.90;;;;;;4862985;29;20103;-78
2022/04/22 11:03:13;;;;;;;9.93;5.07;;;13.90;99.90;;;;;;4862829;29;20045;-79
2022/04/22 11:05:49;;;;;;;13.05;4.70;;;14.00;99.90;;;;;;4879738;29;20060;-79
2022/04/22 11:08:26;;;;;;;11.63;4.38;;;13.70;99.90;;;;;;4862870;29;20446;-79
2022/04/22 11:10:52;;;;;;;11.35;4.90;;;14.00;99.90;;;;;;4879371;29;20108;-79
2022/04/22 11:13:28;;;;;;;13.80;5.93;;;13.90;99.90;;;;;;4863146;29;20084;-79
2022/04/22 11:15:57;;;;;;;13.50;5.10;;;13.90;99.90;;;;;;4869196;29;20131;-79
2022/04/22 11:18:22;;;;;;;7.47;4.70;;;14.00;99.90;;;;;;4868854;29;20052;-79
2022/04/22 11:21:05;;;;;;;13.18;6.13;;;13.80;99.90;;;;;;4868925;29;20101;-79
2022/04/22 11:23:39;;;;;;;13.10;4.95;;;13.80;99.90;;;;;;4885763;29;20044;-79
2022/04/22 11:26:06;;;;;;;11.30;4.85;;;14.00;99.90;;;;;;4869082;29;20124;-79
2022/04/22 11:28:36;;;;;;;10.25;4.63;;;14.00;99.90;;;;;;4885722;29;20053;-80
2022/04/22 11:31:07;;;;;;;8.90;5.15;;;14.10;99.90;;;;;;4869040;29;20057;-79
2022/04/22 11:33:48;;;;;;;12.65;5.25;;;14.20;99.90;;;;;;4885609;29;20040;-79
2022/04/22 11:36:14;;;;;;;14.40;5.30;;;14.20;99.90;;;;;;4885776;29;20053;-78
2022/04/22 11:38:51;;;;;;;11.82;5.13;;;14.20;99.90;;;;;;4868804;29;20045;-79
2022/04/22 11:41:17;;;;;;;10.07;5.68;;;14.30;99.90;;;;;;4869039;29;20056;-79
2022/04/22 11:43:44;;;;;;;12.23;5.93;;;14.10;99.90;;;;;;4868653;29;20083;-79
2022/04/22 11:46:14;;;;;;;15.18;7.10;;;14.10;99.90;;;;;;4885673;29;20049;-79
2022/04/22 11:48:53;;;;;;;13.05;6.03;;;14.00;99.90;;;;;;4885633;29;20053;-79
2022/04/22 11:51:19;;;;;;;12.45;5.63;;;14.10;99.90;;;;;;4869056;29;20064;-79
2022/04/22 11:53:47;;;;;;;15.30;6.30;;;14.20;99.90;;;;;;4885717;29;20108;-78
2022/04/22 11:56:17;;;;;;;15.05;6.10;;;14.20;99.90;;;;;;4868692;29;20406;-78
2022/04/22 11:58:43;;;;;;;12.60;5.97;;;14.00;99.90;;;;;;4868775;29;20053;-78
2022/04/22 12:06:39;;;;;;;15.60;7.43;;;14.60;99.90;;;;;;4868554;29;20458;-77
2022/04/22 12:09:06;;;;;;;15.95;6.95;;;14.10;99.90;;;;;;4885383;29;20123;-79
2022/04/22 12:11:42;;;;;;;12.98;6.30;;;14.20;99.90;;;;;;4885274;29;20489;-79
2022/04/22 12:14:09;;;;;;;12.00;6.43;;;14.30;99.90;;;;;;4885554;29;20056;-79
2022/04/22 12:16:36;;;;;;;16.48;7.68;;;14.20;99.90;;;;;;4868548;29;20052;-79
2022/04/22 12:19:02;;;;;;;12.25;6.63;;;14.40;99.90;;;;;;4868545;29;20061;-79
2022/04/22 12:21:35;;;;;;;14.40;6.45;;;14.50;99.90;;;;;;4868552;29;20105;-79
2022/04/22 12:24:05;;;;;;;11.77;5.97;;;14.50;99.90;;;;;;4868432;29;20136;-79
2022/04/22 12:26:34;;;;;;;10.77;6.20;;;14.50;99.90;;;;;;4865002;29;20053;-79
2022/04/22 12:29:13;;;;;;;12.70;7.03;;;14.60;99.90;;;;;;4865513;29;20136;-79
2022/04/22 12:31:40;;;;;;;15.18;6.35;;;14.40;99.90;;;;;;4865848;29;20045;-79
2022/04/22 12:34:08;;;;;;;13.93;5.93;;;14.40;99.90;;;;;;4865689;29;20060;-79
2022/04/22 12:36:52;;;;;;;12.73;7.10;;;14.50;99.90;;;;;;4865533;29;20049;-79
2022/04/22 12:39:36;;;;;;;13.27;5.93;;;14.40;99.90;;;;;;4865721;29;20048;-79
2022/04/22 12:42:02;;;;;;;13.15;5.95;;;14.30;99.90;;;;;;4865342;29;20083;-79
2022/04/22 12:44:28;;;;;;;17.35;6.68;;;14.50;99.90;;;;;;4865365;29;20108;-79
2022/04/22 12:52:54;;;;;;;11.02;6.47;;;14.40;99.90;;;;;;4882176;29;20056;-79
2022/04/22 12:55:20;;;;;;;12.75;7.40;;;14.50;99.90;;;;;;4881746;29;20041;-79
2022/04/22 12:57:58;;;;;;;12.10;6.22;;;14.60;99.90;;;;;;4865161;29;20088;-79
2022/04/22 13:00:24;;;;;;;16.00;6.65;;;14.80;99.90;;;;;;4881815;29;20063;-78
2022/04/22 13:02:50;;;;;;;15.43;6.53;;;14.80;99.90;;;;;;4865262;29;20053;-79
2022/04/22 13:05:21;;;;;;;16.30;5.97;;;14.60;99.90;;;;;;4865238;29;20064;-79
2022/04/22 13:07:50;;;;;;;15.55;6.40;;;14.90;99.90;;;;;;4865001;29;20481;-79
2022/04/22 13:10:22;;;;;;;15.75;7.78;;;14.80;99.90;;;;;;4865112;29;20156;-78
2022/04/22 13:12:48;;;;;;;13.52;6.90;;;14.80;99.90;;;;;;4864739;29;20049;-78
2022/04/22 13:15:19;;;;;;;12.00;6.50;;;15.10;99.90;;;;;;4864637;29;20068;-78
2022/04/22 13:17:46;;;;;;;14.00;6.28;;;15.10;99.90;;;;;;4881456;29;20051;-80
2022/04/22 13:20:14;;;;;;;15.95;6.93;;;15.30;99.90;;;;;;4881452;29;20053;-80
2022/04/22 13:22:41;;;;;;;15.23;6.35;;;15.10;99.90;;;;;;4865035;29;20192;-78
2022/04/22 13:25:10;;;;;;;15.52;6.10;;;14.70;99.90;;;;;;4881487;29;20059;-79
2022/04/22 13:27:36;;;;;;;19.95;7.00;;;14.80;99.90;;;;;;4864514;29;20060;-82
2022/04/22 13:30:01;;;;;;;13.70;6.40;;;14.60;99.90;;;;;;4864466;29;20049;-79
2022/04/22 13:32:27;;;;;;;14.05;6.88;;;14.60;99.90;;;;;;4864552;29;20049;-80
2022/04/22 13:34:53;;;;;;;15.65;6.68;;;14.40;99.90;;;;;;4881066;29;20049;-80
2022/04/22 13:37:18;;;;;;;13.57;7.07;;;14.80;99.90;;;;;;4864045;29;20105;-80
2022/04/22 13:39:44;;;;;;;14.00;6.35;;;14.60;99.90;;;;;;4864568;29;20132;-80
2022/04/22 13:42:10;;;;;;;22.63;7.35;;;14.40;99.90;;;;;;4864411;29;20055;-80
2022/04/22 13:52:50;;;;;;;20.05;6.57;;;14.60;99.90;;;;;;4881059;29;20064;-82
2022/04/22 13:55:16;;;;;;;24.42;6.35;;;14.70;99.90;;;;;;4864295;29;20052;-81
2022/04/22 13:57:41;;;;;;;13.85;7.07;;;14.80;99.90;;;;;;4880974;29;20119;-81
2022/04/22 14:00:07;;;;;;;20.73;6.72;;;14.80;99.90;;;;;;4863932;29;20425;-82